アダック島 の空港の天気 - METARとTAF

アダック空港 ( PADK / ADK ) - アメリカ アラスカ州アダック島
飛行場実況気象(Metar)
観測時間11/14 08:56 AKST (11/14 17:56 UTC)
風向・風速北北西 6m/s
視程10km以上
天気現象
全天の4割程度の雲 雲底高度 340m
全天の4割程度の雲 雲底高度 670m
全天の8割程度の雲 雲底高度 1010m
気温1.7℃
湿度88%
気圧1013.9hPa
METARPADK 141756Z AUTO 33011KT 10SM SCT011 SCT022 BKN033 02/00 A2994 RMK AO2 RAB27E48UPB48E54 SLP139 P0001 60001 T00170000 10033 20017 51010 FZRANO
過去の天気等 Google飛行場航空写真 Wunderground天気予報

過去48時間のMETAR

飛行場予報(TAF)
データがありません